Time;durP1;ratioP1;P1;durP2;ratioP2;P2;SDS_P1;SDS_P2;PMS_P1;PMS_P2;Temp;Humidity;BMP_temperature;BMP_pressure;BME280_temperature;BME280_humidity;BME280_pressure;Samples;Min_cycle;Max_cycle;Signal;HPM_P1;HPM_P2
2022/04/14 00:01:13;;;;;;;34.03;25.42;;;14.70;79.80;;;;;;5056304;28;20036;-63
2022/04/14 00:03:40;;;;;;;33.15;25.77;;;14.70;79.80;;;;;;5057214;28;20072;-63
2022/04/14 00:06:06;;;;;;;36.80;27.00;;;14.70;79.80;;;;;;5057337;28;20025;-63
2022/04/14 00:08:31;;;;;;;35.72;27.40;;;14.70;79.90;;;;;;5064806;28;20039;-63
2022/04/14 00:10:57;;;;;;;35.60;27.25;;;14.60;79.90;;;;;;5056125;28;20021;-63
2022/04/14 00:13:22;;;;;;;34.50;26.23;;;14.60;79.90;;;;;;5061499;28;20040;-63
2022/04/14 00:15:48;;;;;;;37.70;28.00;;;14.60;79.90;;;;;;5055619;28;20037;-63
2022/04/14 00:18:13;;;;;;;37.33;27.45;;;14.60;79.90;;;;;;5064202;28;20365;-63
2022/04/14 00:20:39;;;;;;;36.13;27.20;;;14.60;79.90;;;;;;5056871;28;20357;-63
2022/04/14 00:23:05;;;;;;;35.40;27.13;;;14.70;79.90;;;;;;5056970;28;20036;-63
2022/04/14 00:25:30;;;;;;;37.10;27.90;;;14.60;79.90;;;;;;5056857;28;20037;-63
2022/04/14 00:27:56;;;;;;;37.03;26.73;;;14.60;79.90;;;;;;5057206;28;20052;-63
2022/04/14 00:30:21;;;;;;;37.80;28.58;;;14.60;79.90;;;;;;5050989;28;20425;-63
2022/04/14 00:32:47;;;;;;;36.92;26.95;;;14.60;79.90;;;;;;5054188;28;20151;-63
2022/04/14 00:35:12;;;;;;;38.08;28.75;;;14.60;79.90;;;;;;5055788;28;20410;-63
2022/04/14 00:37:39;;;;;;;36.50;28.17;;;14.50;79.90;;;;;;5057071;28;20083;-63
2022/04/14 00:40:05;;;;;;;38.13;26.73;;;14.50;79.90;;;;;;5056226;28;20405;-65
2022/04/14 00:42:31;;;;;;;36.42;28.52;;;14.50;79.90;;;;;;5056447;28;20037;-63
2022/04/14 00:44:57;;;;;;;38.15;28.17;;;14.50;79.90;;;;;;5066054;28;20422;-63
2022/04/14 00:47:23;;;;;;;36.75;27.80;;;14.50;80.60;;;;;;5062315;28;20814;-63
2022/04/14 00:49:48;;;;;;;39.67;28.48;;;14.50;80.00;;;;;;5058068;28;20032;-63
2022/04/14 00:52:16;;;;;;;39.78;28.38;;;14.50;80.00;;;;;;5060910;28;20066;-63
2022/04/14 00:54:41;;;;;;;36.25;27.73;;;14.50;80.00;;;;;;5059430;28;20442;-63
2022/04/14 00:57:08;;;;;;;36.78;26.77;;;14.40;79.90;;;;;;5056322;28;20048;-63
2022/04/14 00:59:34;;;;;;;34.63;26.20;;;14.40;79.90;;;;;;5055705;28;20137;-63
2022/04/14 01:02:00;;;;;;;36.97;26.85;;;14.40;79.90;;;;;;5068133;28;20123;-63
2022/04/14 01:04:27;;;;;;;36.58;27.42;;;14.40;79.90;;;;;;5062365;28;20093;-63
2022/04/14 01:06:53;;;;;;;36.80;27.95;;;14.40;79.90;;;;;;5074108;28;20024;-63
2022/04/14 01:09:19;;;;;;;36.63;27.73;;;14.40;79.90;;;;;;5063639;28;20473;-63
2022/04/14 01:11:47;;;;;;;42.17;29.58;;;14.40;80.00;;;;;;5055231;28;20040;-63
2022/04/14 01:14:30;;;;;;;37.63;28.90;;;14.40;80.00;;;;;;5061328;28;20025;-63
2022/04/14 01:17:01;;;;;;;37.42;27.58;;;14.30;79.90;;;;;;5036190;28;20033;-63
2022/04/14 01:19:27;;;;;;;41.35;29.08;;;14.30;80.00;;;;;;5047816;28;20028;-63
2022/04/14 01:21:59;;;;;;;37.22;28.13;;;14.30;80.00;;;;;;5056003;28;20063;-63
2022/04/14 01:24:26;;;;;;;39.65;28.60;;;14.30;80.00;;;;;;5059994;28;20442;-63
2022/04/14 01:26:53;;;;;;;37.05;28.45;;;14.30;80.00;;;;;;5055741;28;20342;-63
2022/04/14 01:29:23;;;;;;;40.63;28.63;;;14.30;80.00;;;;;;5055897;28;20108;-63
2022/04/14 01:31:50;;;;;;;37.75;26.90;;;14.30;80.00;;;;;;5055549;28;20119;-63
2022/04/14 01:34:16;;;;;;;36.83;27.65;;;14.30;80.00;;;;;;5055242;28;20035;-63
2022/04/14 01:36:42;;;;;;;36.38;26.13;;;14.20;80.00;;;;;;5055800;28;20029;-63
2022/04/14 01:39:11;;;;;;;37.95;27.52;;;14.30;80.00;;;;;;5056349;28;20327;-63
2022/04/14 01:41:41;;;;;;;36.70;27.52;;;14.20;79.90;;;;;;5055433;28;20032;-63
2022/04/14 01:44:08;;;;;;;41.08;29.25;;;14.20;80.00;;;;;;5054694;28;20087;-63
2022/04/14 01:46:34;;;;;;;40.10;30.25;;;14.30;80.10;;;;;;5055345;28;20037;-63
2022/04/14 01:49:00;;;;;;;40.30;28.40;;;14.20;80.10;;;;;;5055046;28;20021;-63
2022/04/14 01:51:27;;;;;;;39.15;29.60;;;14.20;80.20;;;;;;5058346;28;20020;-63
2022/04/14 01:53:53;;;;;;;39.22;27.35;;;14.20;80.20;;;;;;5072896;28;20353;-63
2022/04/14 01:56:18;;;;;;;40.05;29.67;;;14.20;80.20;;;;;;5054662;28;20082;-63
2022/04/14 01:58:45;;;;;;;39.25;29.10;;;14.10;80.20;;;;;;5055555;28;20028;-63
2022/04/14 02:01:10;;;;;;;39.03;29.38;;;14.10;80.30;;;;;;5065619;28;20469;-62
2022/04/14 02:03:36;;;;;;;38.50;29.13;;;14.10;80.30;;;;;;5063711;28;20033;-63
2022/04/14 02:06:02;;;;;;;38.92;27.98;;;14.10;80.30;;;;;;5055456;28;20032;-63
2022/04/14 02:08:28;;;;;;;44.65;31.65;;;14.10;80.30;;;;;;5055127;28;20310;-63
2022/04/14 02:10:54;;;;;;;40.90;29.60;;;14.10;80.30;;;;;;5054165;28;20043;-63
2022/04/14 02:13:20;;;;;;;39.78;30.05;;;14.10;80.40;;;;;;5054196;28;20442;-63
2022/04/14 02:15:46;;;;;;;41.33;30.48;;;14.10;80.50;;;;;;5056089;28;20033;-63
2022/04/14 02:18:11;;;;;;;39.47;30.35;;;14.10;80.50;;;;;;5055165;28;20424;-63
2022/04/14 02:20:37;;;;;;;41.20;30.02;;;14.10;80.60;;;;;;5063804;28;20036;-63
2022/04/14 02:23:03;;;;;;;40.60;29.05;;;14.00;80.50;;;;;;5053907;28;20373;-63
2022/04/14 02:25:28;;;;;;;40.22;29.75;;;14.00;80.60;;;;;;5054714;28;20029;-63
2022/04/14 02:27:54;;;;;;;40.60;30.50;;;14.00;80.60;;;;;;5054638;28;20420;-62
2022/04/14 02:30:20;;;;;;;41.45;30.42;;;14.00;80.70;;;;;;5054781;28;20031;-63
2022/04/14 02:32:45;;;;;;;42.30;30.67;;;14.00;80.70;;;;;;5054288;28;20071;-63
2022/04/14 02:35:11;;;;;;;41.10;31.20;;;14.00;80.80;;;;;;5054555;28;20099;-63
2022/04/14 02:37:37;;;;;;;42.85;31.38;;;14.00;80.90;;;;;;5054519;28;20123;-63
2022/04/14 02:40:03;;;;;;;44.13;29.27;;;14.00;81.00;;;;;;5055170;28;20366;-63
2022/04/14 02:42:28;;;;;;;39.63;29.30;;;14.00;81.10;;;;;;5054016;28;20033;-63
2022/04/14 02:44:54;;;;;;;40.08;30.45;;;14.00;81.10;;;;;;5053938;28;20029;-63
2022/04/14 02:47:19;;;;;;;42.83;31.00;;;14.00;81.20;;;;;;5062598;28;20048;-63
2022/04/14 02:49:45;;;;;;;41.53;31.13;;;14.00;81.30;;;;;;5066034;28;20354;-63
2022/04/14 02:52:10;;;;;;;39.78;30.05;;;14.00;81.40;;;;;;5054693;28;20159;-63
2022/04/14 02:54:39;;;;;;;40.28;29.80;;;14.00;81.40;;;;;;5053291;28;20048;-63
2022/04/14 02:57:09;;;;;;;37.22;28.40;;;14.00;81.50;;;;;;5062530;28;20025;-65
2022/04/14 02:59:36;;;;;;;39.42;30.02;;;14.00;81.50;;;;;;5054013;28;20349;-63
2022/04/14 03:02:03;;;;;;;45.63;29.73;;;14.00;81.60;;;;;;5055001;28;20122;-63
2022/04/14 03:04:30;;;;;;;44.45;28.02;;;14.00;81.60;;;;;;5054410;28;20039;-63
2022/04/14 03:06:56;;;;;;;38.65;27.27;;;14.00;81.70;;;;;;5063989;28;20028;-63
2022/04/14 03:09:22;;;;;;;45.30;27.30;;;13.90;81.70;;;;;;5054254;28;20048;-63
2022/04/14 03:11:48;;;;;;;38.75;29.52;;;13.90;81.80;;;;;;5053206;28;20029;-63
2022/04/14 03:14:14;;;;;;;36.95;27.92;;;13.90;81.80;;;;;;5054388;28;20095;-63
2022/04/14 03:16:39;;;;;;;35.10;26.92;;;13.90;82.00;;;;;;5062072;28;20032;-63
2022/04/14 03:19:05;;;;;;;39.38;27.60;;;13.90;82.00;;;;;;5054215;28;20033;-62
2022/04/14 03:21:31;;;;;;;35.50;26.67;;;13.90;82.00;;;;;;5063653;28;20032;-62
2022/04/14 03:23:56;;;;;;;36.17;25.63;;;13.90;82.00;;;;;;5056614;28;20084;-63
2022/04/14 03:26:22;;;;;;;33.88;27.27;;;13.90;82.00;;;;;;5057895;28;20017;-63
2022/04/14 03:28:47;;;;;;;35.40;25.05;;;13.80;82.00;;;;;;5057805;28;20493;-63
2022/04/14 03:31:13;;;;;;;33.72;25.33;;;13.90;82.00;;;;;;5057421;28;20390;-63
2022/04/14 03:33:39;;;;;;;35.42;25.38;;;13.80;82.00;;;;;;5057808;28;20056;-63
2022/04/14 03:36:05;;;;;;;34.88;25.10;;;13.80;82.10;;;;;;5058882;28;20086;-63
2022/04/14 03:38:31;;;;;;;36.42;28.73;;;13.80;82.10;;;;;;5041372;28;20045;-63
2022/04/14 03:40:57;;;;;;;32.28;26.83;;;13.80;82.00;;;;;;5067081;28;20044;-63
2022/04/14 03:43:22;;;;;;;40.05;26.92;;;13.80;82.00;;;;;;5056597;28;20029;-62
2022/04/14 03:45:48;;;;;;;32.72;26.55;;;13.80;82.00;;;;;;5057459;28;20033;-63
2022/04/14 03:48:13;;;;;;;36.65;28.00;;;13.70;82.10;;;;;;5057988;28;20476;-63
2022/04/14 03:50:39;;;;;;;36.33;28.02;;;13.70;82.70;;;;;;5058083;28;20036;-62
2022/04/14 03:53:05;;;;;;;38.72;28.40;;;13.70;82.00;;;;;;5057635;28;20343;-63
2022/04/14 03:55:31;;;;;;;33.95;26.92;;;13.70;81.90;;;;;;5057707;28;20502;-63
2022/04/14 03:57:56;;;;;;;35.42;26.35;;;13.70;81.90;;;;;;5057321;28;20604;-63
2022/04/14 04:00:22;;;;;;;34.15;27.75;;;13.70;81.90;;;;;;5057923;28;20086;-63
2022/04/14 04:02:48;;;;;;;34.15;26.75;;;13.70;81.90;;;;;;5058199;28;20358;-63
2022/04/14 04:05:13;;;;;;;34.55;27.20;;;13.70;81.90;;;;;;5061231;28;20024;-63
2022/04/14 04:07:39;;;;;;;37.13;27.20;;;13.70;81.90;;;;;;5067733;28;20025;-62
2022/04/14 04:10:06;;;;;;;32.03;25.33;;;13.70;81.90;;;;;;5057540;28;20027;-63
2022/04/14 04:12:32;;;;;;;34.45;26.35;;;13.70;81.90;;;;;;5057532;28;20063;-62
2022/04/14 04:14:58;;;;;;;35.75;26.27;;;13.60;81.90;;;;;;5054155;28;20129;-63
2022/04/14 04:17:23;;;;;;;34.35;26.35;;;13.60;81.90;;;;;;5055215;28;20140;-63
2022/04/14 04:19:49;;;;;;;33.60;25.67;;;13.60;81.90;;;;;;5073648;28;20033;-63
2022/04/14 04:22:14;;;;;;;32.55;25.55;;;13.60;81.90;;;;;;5070722;28;20029;-63
2022/04/14 04:24:40;;;;;;;32.17;25.65;;;13.60;81.90;;;;;;5056020;28;20025;-62
2022/04/14 04:27:06;;;;;;;35.17;26.10;;;13.50;81.90;;;;;;5063641;28;20024;-63
2022/04/14 04:29:32;;;;;;;36.08;26.27;;;13.50;81.90;;;;;;5056554;28;20021;-63
2022/04/14 04:31:58;;;;;;;33.55;26.15;;;13.50;81.90;;;;;;5065082;28;20044;-63
2022/04/14 04:34:24;;;;;;;36.28;26.88;;;13.60;82.00;;;;;;5056407;28;20037;-63
2022/04/14 04:36:51;;;;;;;32.55;24.75;;;13.50;81.90;;;;;;5056809;28;20470;-63
2022/04/14 04:39:16;;;;;;;33.00;25.80;;;13.50;81.90;;;;;;5056649;28;20033;-63
2022/04/14 04:41:42;;;;;;;37.33;25.48;;;13.50;81.90;;;;;;5059521;28;20028;-62
2022/04/14 04:44:09;;;;;;;33.75;25.45;;;13.50;81.90;;;;;;5059333;28;20021;-63
2022/04/14 04:46:35;;;;;;;35.38;26.08;;;13.50;82.00;;;;;;5056999;28;20029;-63
2022/04/14 04:49:01;;;;;;;30.65;26.13;;;13.50;82.00;;;;;;5064208;28;20025;-63
2022/04/14 04:51:27;;;;;;;34.50;25.17;;;13.50;82.00;;;;;;5077265;28;20032;-63
2022/04/14 04:53:53;;;;;;;35.33;25.52;;;13.50;82.00;;;;;;5056656;28;20112;-62
2022/04/14 04:56:18;;;;;;;37.33;25.73;;;13.50;82.10;;;;;;5063651;28;20056;-65
2022/04/14 04:58:44;;;;;;;33.50;25.17;;;13.50;82.00;;;;;;5074661;28;20036;-65
2022/04/14 05:01:10;;;;;;;34.88;26.58;;;13.50;82.00;;;;;;5076939;28;20112;-65
2022/04/14 05:03:35;;;;;;;30.95;23.40;;;13.50;82.00;;;;;;5059927;28;20107;-65
2022/04/14 05:06:01;;;;;;;33.33;25.10;;;13.40;82.00;;;;;;5056994;28;20017;-65
2022/04/14 05:08:27;;;;;;;34.38;25.08;;;13.40;82.00;;;;;;5056887;28;20438;-65
2022/04/14 05:10:52;;;;;;;32.50;24.17;;;13.40;82.00;;;;;;5068293;28;20021;-65
2022/04/14 05:13:18;;;;;;;34.15;25.42;;;13.50;82.00;;;;;;5056548;28;20431;-65
2022/04/14 05:15:43;;;;;;;34.17;25.20;;;13.50;82.00;;;;;;5056673;28;20032;-65
2022/04/14 05:18:09;;;;;;;33.97;24.55;;;13.40;82.00;;;;;;5056260;28;20468;-65
2022/04/14 05:20:35;;;;;;;30.23;23.35;;;13.40;82.60;;;;;;5069095;28;20426;-65
2022/04/14 05:23:07;;;;;;;30.98;23.90;;;13.40;82.10;;;;;;5075385;28;20498;-65
2022/04/14 05:25:32;;;;;;;30.20;23.15;;;13.40;82.10;;;;;;5063256;28;20356;-65
2022/04/14 05:27:58;;;;;;;37.22;21.58;;;13.40;82.00;;;;;;5056144;28;20104;-65
2022/04/14 05:30:25;;;;;;;36.33;24.20;;;13.40;82.00;;;;;;5056551;28;20060;-65
2022/04/14 05:32:50;;;;;;;31.73;22.73;;;13.30;82.00;;;;;;5056002;28;20044;-65
2022/04/14 05:35:16;;;;;;;29.05;22.92;;;13.30;82.00;;;;;;5056708;28;20112;-63
2022/04/14 05:37:42;;;;;;;30.80;22.05;;;13.40;82.10;;;;;;5055899;28;20078;-64
2022/04/14 05:40:08;;;;;;;31.80;22.92;;;13.30;82.00;;;;;;5063284;28;20037;-64
2022/04/14 05:42:34;;;;;;;31.10;21.90;;;13.40;82.00;;;;;;5055785;28;20033;-64
2022/04/14 05:45:00;;;;;;;32.63;20.42;;;13.40;82.00;;;;;;5057612;28;20143;-64
2022/04/14 05:47:26;;;;;;;30.65;21.42;;;13.40;82.00;;;;;;5056127;28;20021;-64
2022/04/14 05:49:53;;;;;;;30.95;21.92;;;13.40;82.00;;;;;;5055797;28;20024;-68
2022/04/14 05:52:19;;;;;;;32.35;22.00;;;13.30;82.60;;;;;;5055141;28;20031;-65
2022/04/14 05:54:48;;;;;;;30.08;21.33;;;13.30;81.90;;;;;;5044711;28;20454;-65
2022/04/14 05:57:14;;;;;;;29.08;21.48;;;13.30;81.90;;;;;;5054726;28;20048;-65
2022/04/14 05:59:40;;;;;;;29.27;22.13;;;13.30;81.90;;;;;;5055833;28;20025;-64
2022/04/14 06:02:07;;;;;;;27.40;20.73;;;13.40;82.00;;;;;;5056284;28;20115;-64
2022/04/14 06:04:32;;;;;;;22.92;19.15;;;13.40;81.90;;;;;;5054431;28;20113;-65
2022/04/14 06:06:58;;;;;;;38.42;21.60;;;13.40;81.70;;;;;;5055716;28;20457;-65
2022/04/14 06:09:24;;;;;;;30.27;20.08;;;13.50;81.70;;;;;;5055380;28;20033;-63
2022/04/14 06:11:49;;;;;;;26.58;20.02;;;13.50;81.60;;;;;;5055853;28;20025;-64
2022/04/14 06:14:15;;;;;;;25.77;20.90;;;13.50;81.50;;;;;;5055049;28;20025;-65
2022/04/14 06:16:40;;;;;;;50.50;22.88;;;13.50;81.50;;;;;;5070353;28;20025;-65
2022/04/14 06:19:06;;;;;;;39.15;23.25;;;13.50;81.40;;;;;;5064035;28;20537;-65
2022/04/14 06:21:31;;;;;;;50.97;22.15;;;13.60;81.40;;;;;;5065004;28;20094;-65
2022/04/14 06:23:57;;;;;;;39.78;22.40;;;13.60;81.40;;;;;;5071707;28;20112;-64
2022/04/14 06:26:23;;;;;;;30.95;20.13;;;13.60;81.30;;;;;;5055107;28;20032;-65
2022/04/14 06:28:49;;;;;;;25.77;20.42;;;13.70;81.30;;;;;;5054886;28;20057;-65
2022/04/14 06:31:14;;;;;;;80.25;23.70;;;13.70;81.30;;;;;;5059280;28;20465;-65
2022/04/14 06:33:41;;;;;;;55.95;23.38;;;13.70;81.20;;;;;;5073383;28;20384;-66
2022/04/14 06:36:06;;;;;;;26.65;20.35;;;13.70;81.10;;;;;;5071007;28;20104;-66
2022/04/14 06:38:32;;;;;;;23.95;19.30;;;13.80;81.00;;;;;;5056922;28;20220;-65
2022/04/14 06:40:58;;;;;;;25.98;19.63;;;13.80;80.80;;;;;;5056252;28;20029;-64
2022/04/14 06:43:26;;;;;;;24.77;20.50;;;13.80;80.60;;;;;;5053243;28;20124;-64
2022/04/14 06:45:52;;;;;;;24.00;18.40;;;13.90;80.60;;;;;;5055562;28;20033;-64
2022/04/14 06:48:18;;;;;;;23.65;19.05;;;13.90;80.40;;;;;;5062917;28;20374;-65
2022/04/14 06:50:43;;;;;;;25.33;20.58;;;14.00;80.30;;;;;;5053406;28;20033;-64
2022/04/14 06:53:09;;;;;;;28.17;20.50;;;14.10;80.10;;;;;;5064144;28;20076;-64
2022/04/14 06:55:36;;;;;;;24.95;20.40;;;14.10;80.00;;;;;;5054236;28;20033;-64
2022/04/14 06:58:02;;;;;;;23.95;19.15;;;14.10;79.80;;;;;;5060831;28;20459;-63
2022/04/14 07:00:28;;;;;;;25.50;19.58;;;14.20;79.70;;;;;;5042031;28;20038;-64
2022/04/14 07:02:55;;;;;;;24.23;18.55;;;14.20;79.70;;;;;;5058466;28;20048;-64
2022/04/14 07:05:22;;;;;;;25.75;19.60;;;14.30;79.60;;;;;;5054909;28;20431;-64
2022/04/14 07:07:48;;;;;;;24.73;20.25;;;14.30;79.40;;;;;;5054502;28;20063;-64
2022/04/14 07:10:14;;;;;;;24.92;19.17;;;14.30;79.20;;;;;;5053964;28;20393;-63
2022/04/14 07:12:41;;;;;;;26.17;19.77;;;14.30;79.00;;;;;;5054273;28;20053;-64
2022/04/14 07:15:08;;;;;;;25.83;19.00;;;14.40;78.90;;;;;;5053994;28;20331;-64
2022/04/14 07:17:34;;;;;;;25.17;21.20;;;14.50;78.60;;;;;;5053925;28;20356;-64
2022/04/14 07:20:01;;;;;;;26.63;20.13;;;14.60;78.40;;;;;;5054380;28;20029;-64
2022/04/14 07:22:26;;;;;;;23.15;19.20;;;14.70;78.20;;;;;;5055490;28;20064;-64
2022/04/14 07:24:53;;;;;;;23.98;18.27;;;14.90;78.00;;;;;;5061315;28;20025;-64
2022/04/14 07:27:21;;;;;;;26.48;19.83;;;15.20;77.40;;;;;;5054063;28;20033;-64
2022/04/14 07:29:47;;;;;;;24.60;19.40;;;15.40;76.60;;;;;;5053329;28;20032;-64
2022/04/14 07:32:14;;;;;;;26.05;20.05;;;15.70;76.00;;;;;;5061629;28;20114;-64
2022/04/14 07:34:39;;;;;;;24.90;20.60;;;15.90;75.50;;;;;;5059722;28;20033;-64
2022/04/14 07:37:05;;;;;;;26.23;20.35;;;16.10;74.80;;;;;;5054432;28;20093;-64
2022/04/14 07:39:31;;;;;;;27.15;20.05;;;16.20;74.60;;;;;;5061083;28;20017;-64
2022/04/14 07:41:57;;;;;;;25.17;20.73;;;16.30;74.10;;;;;;5057061;28;20133;-65
2022/04/14 07:44:22;;;;;;;35.72;26.15;;;16.50;73.80;;;;;;5054307;28;20489;-65
2022/04/14 07:46:48;;;;;;;28.05;24.58;;;16.70;73.40;;;;;;5049984;28;20044;-66
2022/04/14 07:49:13;;;;;;;42.75;36.85;;;16.90;72.90;;;;;;5058847;28;20365;-67
2022/04/14 07:51:40;;;;;;;32.80;25.13;;;17.20;72.30;;;;;;5056571;28;20381;-66
2022/04/14 07:54:06;;;;;;;25.05;20.77;;;17.30;71.60;;;;;;5065283;28;20032;-66
2022/04/14 07:56:33;;;;;;;25.10;19.75;;;17.40;71.80;;;;;;5053124;28;20116;-65
2022/04/14 07:58:59;;;;;;;23.52;19.17;;;17.50;70.90;;;;;;5042760;28;20040;-65
2022/04/14 08:01:25;;;;;;;23.75;19.35;;;17.60;70.40;;;;;;5044121;28;20021;-66
2022/04/14 08:03:51;;;;;;;24.52;18.40;;;17.70;70.20;;;;;;5045916;28;20079;-67
2022/04/14 08:06:17;;;;;;;23.23;18.92;;;17.90;69.90;;;;;;5042286;28;20057;-65
2022/04/14 08:08:43;;;;;;;21.85;18.77;;;18.00;69.60;;;;;;5046061;28;20021;-66
2022/04/14 08:11:10;;;;;;;23.25;19.40;;;18.10;69.30;;;;;;5045886;28;20039;-65
2022/04/14 08:13:41;;;;;;;24.80;18.50;;;18.30;68.90;;;;;;5048970;28;20088;-66
2022/04/14 08:16:09;;;;;;;22.40;17.42;;;18.40;68.60;;;;;;5050598;28;20513;-66
2022/04/14 08:18:39;;;;;;;25.25;20.00;;;18.60;68.20;;;;;;5050113;28;20094;-67
2022/04/14 08:21:05;;;;;;;22.42;18.45;;;18.80;67.80;;;;;;5048015;28;20044;-66
2022/04/14 08:23:31;;;;;;;21.38;16.85;;;18.90;67.40;;;;;;5051459;28;20033;-64
2022/04/14 08:25:57;;;;;;;20.55;15.23;;;18.90;67.20;;;;;;5055086;28;20331;-63
2022/04/14 08:28:23;;;;;;;18.48;14.63;;;18.90;67.30;;;;;;5056497;28;20025;-63
2022/04/14 08:30:49;;;;;;;19.58;15.00;;;18.90;67.00;;;;;;5057218;28;20457;-65
2022/04/14 08:33:18;;;;;;;19.45;15.15;;;18.80;67.00;;;;;;5047892;28;20189;-66
2022/04/14 08:35:44;;;;;;;22.20;14.43;;;18.70;67.20;;;;;;5041108;28;20124;-65
2022/04/14 08:38:10;;;;;;;17.40;13.80;;;18.50;67.40;;;;;;5047464;28;20149;-66
2022/04/14 08:40:44;;;;;;;17.52;14.10;;;18.50;67.60;;;;;;5048041;28;20107;-66
2022/04/14 08:43:10;;;;;;;19.63;13.88;;;18.40;67.60;;;;;;5049074;28;20032;-66
2022/04/14 08:45:47;;;;;;;18.27;13.50;;;18.40;67.70;;;;;;5042458;28;20037;-65
2022/04/14 08:48:15;;;;;;;19.30;13.88;;;18.30;67.90;;;;;;5042949;28;20049;-67
2022/04/14 08:50:42;;;;;;;18.50;14.20;;;18.30;68.10;;;;;;5044409;28;20026;-66
2022/04/14 08:53:09;;;;;;;17.85;13.95;;;18.20;68.10;;;;;;5043334;28;20040;-66
2022/04/14 08:55:39;;;;;;;17.23;13.73;;;18.20;68.30;;;;;;5037794;28;20063;-65
2022/04/14 08:58:06;;;;;;;18.10;12.57;;;18.10;68.40;;;;;;5034928;28;20037;-66
2022/04/14 09:00:32;;;;;;;16.42;12.40;;;18.10;68.60;;;;;;5035540;28;20496;-65
2022/04/14 09:02:59;;;;;;;15.45;12.10;;;18.10;68.60;;;;;;5039545;28;20037;-65
2022/04/14 09:05:25;;;;;;;15.68;11.90;;;18.20;68.50;;;;;;5039548;28;20052;-67
2022/04/14 09:07:51;;;;;;;28.52;23.75;;;18.50;69.00;;;;;;5055318;28;20366;-65
2022/04/14 09:10:18;;;;;;;28.20;23.48;;;18.80;67.80;;;;;;5055984;28;20036;-61
2022/04/14 09:12:43;;;;;;;21.17;16.80;;;19.10;66.90;;;;;;5057395;28;20457;-62
2022/04/14 09:15:10;;;;;;;17.48;14.32;;;19.50;66.20;;;;;;5056088;28;20104;-62
2022/04/14 09:17:36;;;;;;;17.23;12.10;;;19.80;65.60;;;;;;5055875;28;20056;-64
2022/04/14 09:20:34;;;;;;;15.60;9.93;;;20.10;64.80;;;;;;5046175;28;20061;-64
2022/04/14 09:23:21;;;;;;;14.25;9.95;;;20.40;63.90;;;;;;5040839;28;20056;-64
2022/04/14 09:25:49;;;;;;;14.25;8.75;;;20.70;63.00;;;;;;5039084;28;20025;-63
2022/04/14 09:28:18;;;;;;;12.43;8.48;;;20.90;62.80;;;;;;5034257;28;20457;-66
2022/04/14 09:31:06;;;;;;;12.25;8.40;;;21.10;62.40;;;;;;5034881;28;20029;-67
2022/04/14 09:33:33;;;;;;;12.90;8.70;;;21.20;61.90;;;;;;5055772;28;20357;-64
2022/04/14 09:36:11;;;;;;;15.15;10.38;;;21.30;61.60;;;;;;5041595;28;20477;-63
2022/04/14 09:38:49;;;;;;;13.40;8.85;;;21.40;60.70;;;;;;5035878;28;20141;-65
2022/04/14 09:41:38;;;;;;;26.27;20.33;;;21.50;60.70;;;;;;5036200;28;20038;-63
2022/04/14 09:44:08;;;;;;;14.25;11.20;;;21.60;60.20;;;;;;5037714;28;20283;-68
2022/04/14 09:46:36;;;;;;;13.68;8.30;;;21.70;59.90;;;;;;5056146;28;20037;-66
2022/04/14 09:49:08;;;;;;;11.27;6.72;;;21.80;59.60;;;;;;5034341;28;20034;-66
2022/04/14 09:51:41;;;;;;;12.57;6.90;;;21.80;58.80;;;;;;5052420;28;20052;-62
2022/04/14 09:54:15;;;;;;;12.25;6.50;;;21.90;58.40;;;;;;5046076;28;20024;-68
2022/04/14 09:56:53;;;;;;;12.50;7.43;;;21.90;58.20;;;;;;5035641;28;20099;-62
2022/04/14 09:59:21;;;;;;;12.82;7.88;;;21.90;57.90;;;;;;5043092;28;20037;-63
2022/04/14 10:01:48;;;;;;;11.07;6.25;;;21.90;57.90;;;;;;5055560;28;20478;-64
2022/04/14 10:04:34;;;;;;;14.20;9.52;;;22.00;57.60;;;;;;5059733;28;20048;-62
2022/04/14 10:07:11;;;;;;;13.00;7.35;;;22.00;57.20;;;;;;5054679;28;20087;-63
2022/04/14 10:09:41;;;;;;;12.73;6.55;;;22.20;57.20;;;;;;5061172;28;20020;-63
2022/04/14 10:12:29;;;;;;;11.60;6.80;;;22.30;56.90;;;;;;5056946;28;20350;-63
2022/04/14 10:15:01;;;;;;;12.10;7.47;;;22.40;56.40;;;;;;5060461;28;20091;-63
2022/04/14 10:17:29;;;;;;;14.27;8.02;;;22.40;56.50;;;;;;5046845;28;20096;-63
2022/04/14 10:19:55;;;;;;;13.27;7.60;;;22.50;56.20;;;;;;5054218;28;20037;-63
2022/04/14 10:22:20;;;;;;;11.48;7.00;;;22.50;56.20;;;;;;5053496;28;20040;-64
2022/04/14 10:24:47;;;;;;;10.18;6.15;;;22.60;56.00;;;;;;5054151;28;20036;-63
2022/04/14 10:27:16;;;;;;;12.45;6.45;;;22.70;55.80;;;;;;5052907;28;20430;-62
2022/04/14 10:29:43;;;;;;;12.45;7.72;;;22.70;55.60;;;;;;5053706;28;20350;-64
2022/04/14 10:32:11;;;;;;;22.67;18.70;;;22.80;55.40;;;;;;5052282;28;20049;-63
2022/04/14 10:34:38;;;;;;;13.50;8.98;;;22.80;55.20;;;;;;5055798;28;20348;-62
2022/04/14 10:37:07;;;;;;;25.45;20.48;;;22.90;55.10;;;;;;5052762;28;20031;-63
2022/04/14 10:39:38;;;;;;;16.00;9.80;;;22.90;55.00;;;;;;5054759;28;20043;-63
2022/04/14 10:42:04;;;;;;;;;;;23.00;54.80;;;;;;5050582;28;20449;-64
2022/04/14 10:44:47;;;;;;;13.73;7.43;;;23.00;55.00;;;;;;5052342;28;19925;-65
2022/04/14 10:47:52;;;;;;;11.52;7.00;;;23.00;54.60;;;;;;5049549;28;20032;-63
2022/04/14 10:50:28;;;;;;;9.63;5.88;;;22.90;54.30;;;;;;5053214;28;20029;-64
2022/04/14 10:53:07;;;;;;;9.40;5.78;;;23.00;54.30;;;;;;5052299;28;20043;-63
2022/04/14 10:55:44;;;;;;;11.70;6.63;;;23.00;54.10;;;;;;5047836;28;20040;-63
2022/04/14 10:58:28;;;;;;;11.15;6.05;;;23.00;54.10;;;;;;5053566;28;20021;-63
2022/04/14 11:00:54;;;;;;;11.75;5.20;;;22.90;53.90;;;;;;5051680;28;20033;-64
2022/04/14 11:03:40;;;;;;;11.18;6.68;;;22.80;54.10;;;;;;5053206;28;20032;-64
2022/04/14 11:06:05;;;;;;;11.68;6.00;;;22.70;54.10;;;;;;5052667;28;20021;-64
2022/04/14 11:08:32;;;;;;;8.93;5.70;;;22.80;54.20;;;;;;5051986;28;20021;-63
2022/04/14 11:11:11;;;;;;;10.65;5.90;;;22.90;54.00;;;;;;5050990;28;20027;-63
2022/04/14 11:13:55;;;;;;;10.15;5.25;;;23.00;53.90;;;;;;5053313;28;20115;-63
2022/04/14 11:16:47;;;;;;;10.00;5.03;;;23.10;53.70;;;;;;5053320;28;20040;-63
2022/04/14 11:19:19;;;;;;;11.52;5.45;;;23.20;53.50;;;;;;5065619;28;20415;-63
2022/04/14 11:22:04;;;;;;;10.15;4.90;;;23.40;53.30;;;;;;5052333;28;20068;-63
2022/04/14 11:24:36;;;;;;;10.50;5.63;;;23.50;52.90;;;;;;5053303;28;20381;-64
2022/04/14 11:27:22;;;;;;;13.15;4.85;;;23.50;52.80;;;;;;5054369;28;20033;-63
2022/04/14 11:29:51;;;;;;;29.85;6.95;;;23.50;52.60;;;;;;5050992;28;20021;-63
2022/04/14 11:32:35;;;;;;;8.75;4.00;;;23.60;52.60;;;;;;5052115;28;20084;-63
2022/04/14 11:35:18;;;;;;;9.82;4.72;;;23.60;52.50;;;;;;5049062;28;20021;-63
2022/04/14 11:37:45;;;;;;;11.10;5.00;;;23.70;52.20;;;;;;5041682;28;20036;-63
2022/04/14 11:40:20;;;;;;;8.52;4.10;;;23.60;52.10;;;;;;5053367;28;20110;-63
2022/04/14 11:42:54;;;;;;;10.27;3.63;;;23.40;51.80;;;;;;5053595;28;20029;-62
2022/04/14 11:45:24;;;;;;;10.02;4.22;;;23.10;52.20;;;;;;5056665;28;20334;-63
2022/04/14 11:47:54;;;;;;;8.67;4.13;;;22.90;53.10;;;;;;5056835;28;20514;-63
2022/04/14 11:50:24;;;;;;;9.77;4.05;;;22.60;52.70;;;;;;5059959;28;20017;-62
2022/04/14 11:52:55;;;;;;;8.77;4.00;;;22.40;52.80;;;;;;5042054;28;20037;-63
2022/04/14 11:55:38;;;;;;;8.18;3.70;;;22.10;53.10;;;;;;5056931;28;20059;-62
2022/04/14 11:58:08;;;;;;;7.90;3.60;;;22.00;53.50;;;;;;5037845;28;20454;-64
2022/04/14 12:00:44;;;;;;;8.13;3.60;;;21.80;53.80;;;;;;5043933;28;20039;-63
2022/04/14 12:03:10;;;;;;;8.52;3.25;;;21.60;53.80;;;;;;5058459;28;20324;-63
2022/04/14 12:05:36;;;;;;;9.10;3.67;;;21.50;54.00;;;;;;5058526;28;20035;-63
2022/04/14 12:08:06;;;;;;;7.75;3.15;;;21.40;53.90;;;;;;5057690;28;20025;-64
2022/04/14 12:10:32;;;;;;;7.38;2.97;;;21.20;54.00;;;;;;5057585;28;20457;-63
2022/04/14 12:13:08;;;;;;;6.90;3.60;;;21.20;54.10;;;;;;5057466;28;20032;-63
2022/04/14 12:15:35;;;;;;;8.85;3.90;;;21.20;54.00;;;;;;5055536;28;20075;-63
2022/04/14 12:18:09;;;;;;;9.48;3.88;;;21.20;54.20;;;;;;5055200;28;20041;-62
2022/04/14 12:20:36;;;;;;;9.07;4.30;;;21.10;54.20;;;;;;5054395;28;20128;-62
2022/04/14 12:23:02;;;;;;;9.38;3.72;;;21.10;54.30;;;;;;5056174;28;20361;-63
2022/04/14 12:25:28;;;;;;;9.90;4.45;;;21.00;54.50;;;;;;5052665;28;20021;-63
2022/04/14 12:27:54;;;;;;;10.13;4.60;;;20.90;54.60;;;;;;5077188;28;20548;-63
2022/04/14 12:30:22;;;;;;;8.00;4.72;;;20.80;54.80;;;;;;5074707;28;20037;-63
2022/04/14 12:32:48;;;;;;;10.70;5.18;;;20.70;54.90;;;;;;5057188;28;20130;-62
2022/04/14 12:35:35;;;;;;;8.70;4.93;;;20.60;55.10;;;;;;5074931;28;20111;-63